sensor_id;sensor_type;location;lat;lon;timestamp;temperature;humidity
51815;DHT22;37874;53.158;6.766;2024-03-23T00:54:28;16.60;76.30
51815;DHT22;37874;53.158;6.766;2024-03-23T00:56:55;16.90;76.50
51815;DHT22;37874;53.158;6.766;2024-03-23T00:59:22;16.70;76.40
51815;DHT22;37874;53.158;6.766;2024-03-23T01:01:53;16.60;76.20
51815;DHT22;37874;53.158;6.766;2024-03-23T01:04:20;16.60;76.30
51815;DHT22;37874;53.158;6.766;2024-03-23T01:06:46;17.40;76.70
51815;DHT22;37874;53.158;6.766;2024-03-23T01:09:13;16.70;76.40
51815;DHT22;37874;53.158;6.766;2024-03-23T01:11:39;17.10;76.70
51815;DHT22;37874;53.158;6.766;2024-03-23T01:14:06;16.60;76.30
51815;DHT22;37874;53.158;6.766;2024-03-23T01:16:35;16.60;76.30
51815;DHT22;37874;53.158;6.766;2024-03-23T01:19:02;16.70;76.40
51815;DHT22;37874;53.158;6.766;2024-03-23T01:21:28;17.00;76.50
51815;DHT22;37874;53.158;6.766;2024-03-23T01:23:53;16.60;76.30
51815;DHT22;37874;53.158;6.766;2024-03-23T01:26:19;16.60;76.30
51815;DHT22;37874;53.158;6.766;2024-03-23T01:28:46;16.60;76.60
51815;DHT22;37874;53.158;6.766;2024-03-23T01:31:11;16.60;76.20
51815;DHT22;37874;53.158;6.766;2024-03-23T01:33:38;16.60;76.10
51815;DHT22;37874;53.158;6.766;2024-03-23T01:36:04;16.70;76.20
51815;DHT22;37874;53.158;6.766;2024-03-23T01:38:30;16.60;76.20
51815;DHT22;37874;53.158;6.766;2024-03-23T01:40:58;16.60;76.30
51815;DHT22;37874;53.158;6.766;2024-03-23T01:43:24;17.10;76.60
51815;DHT22;37874;53.158;6.766;2024-03-23T01:45:52;16.60;76.30
51815;DHT22;37874;53.158;6.766;2024-03-23T01:48:20;16.60;76.20
51815;DHT22;37874;53.158;6.766;2024-03-23T01:50:46;16.90;76.50
51815;DHT22;37874;53.158;6.766;2024-03-23T01:53:12;17.00;76.20
51815;DHT22;37874;53.158;6.766;2024-03-23T01:55:41;16.50;76.00
51815;DHT22;37874;53.158;6.766;2024-03-23T01:58:07;16.50;76.30
51815;DHT22;37874;53.158;6.766;2024-03-23T02:00:32;17.00;76.60
51815;DHT22;37874;53.158;6.766;2024-03-23T02:02:59;16.80;76.50
51815;DHT22;37874;53.158;6.766;2024-03-23T02:05:26;16.50;76.40
51815;DHT22;37874;53.158;6.766;2024-03-23T02:07:56;16.50;76.30
51815;DHT22;37874;53.158;6.766;2024-03-23T02:10:21;16.50;76.30
51815;DHT22;37874;53.158;6.766;2024-03-23T02:12:47;16.50;76.30
51815;DHT22;37874;53.158;6.766;2024-03-23T02:15:13;16.50;76.30
51815;DHT22;37874;53.158;6.766;2024-03-23T02:17:40;16.50;76.20
51815;DHT22;37874;53.158;6.766;2024-03-23T02:20:07;16.50;76.20
51815;DHT22;37874;53.158;6.766;2024-03-23T02:22:36;16.50;76.20
51815;DHT22;37874;53.158;6.766;2024-03-23T02:25:05;16.50;76.00
51815;DHT22;37874;53.158;6.766;2024-03-23T02:27:31;16.50;76.20
51815;DHT22;37874;53.158;6.766;2024-03-23T02:29:57;16.80;76.20
51815;DHT22;37874;53.158;6.766;2024-03-23T02:32:23;17.10;76.40
51815;DHT22;37874;53.158;6.766;2024-03-23T02:34:49;16.40;76.10
51815;DHT22;37874;53.158;6.766;2024-03-23T02:37:16;17.00;76.50
51815;DHT22;37874;53.158;6.766;2024-03-23T02:39:42;16.40;76.10
51815;DHT22;37874;53.158;6.766;2024-03-23T02:42:08;16.80;76.40
51815;DHT22;37874;53.158;6.766;2024-03-23T02:44:34;16.90;76.30
51815;DHT22;37874;53.158;6.766;2024-03-23T02:47:00;16.30;76.00
51815;DHT22;37874;53.158;6.766;2024-03-23T02:49:27;16.50;76.10
51815;DHT22;37874;53.158;6.766;2024-03-23T02:51:52;16.40;76.00
51815;DHT22;37874;53.158;6.766;2024-03-23T02:54:20;16.40;76.10
51815;DHT22;37874;53.158;6.766;2024-03-23T02:56:47;16.40;76.10
51815;DHT22;37874;53.158;6.766;2024-03-23T02:59:13;16.40;75.90
51815;DHT22;37874;53.158;6.766;2024-03-23T03:01:38;16.40;76.10
51815;DHT22;37874;53.158;6.766;2024-03-23T03:04:04;16.40;76.10
51815;DHT22;37874;53.158;6.766;2024-03-23T03:06:31;16.40;76.20
51815;DHT22;37874;53.158;6.766;2024-03-23T03:08:57;16.40;76.00
51815;DHT22;37874;53.158;6.766;2024-03-23T03:11:23;16.40;76.10
51815;DHT22;37874;53.158;6.766;2024-03-23T03:13:49;16.40;76.00
51815;DHT22;37874;53.158;6.766;2024-03-23T03:16:14;16.40;76.10
51815;DHT22;37874;53.158;6.766;2024-03-23T03:18:40;16.40;76.00
51815;DHT22;37874;53.158;6.766;2024-03-23T03:21:06;17.20;76.40
51815;DHT22;37874;53.158;6.766;2024-03-23T03:23:43;16.40;75.90
51815;DHT22;37874;53.158;6.766;2024-03-23T03:26:11;16.40;76.00
51815;DHT22;37874;53.158;6.766;2024-03-23T03:28:37;16.40;75.90
51815;DHT22;37874;53.158;6.766;2024-03-23T03:31:03;16.30;75.90
51815;DHT22;37874;53.158;6.766;2024-03-23T03:33:28;16.40;76.00
51815;DHT22;37874;53.158;6.766;2024-03-23T03:35:55;16.30;75.90
51815;DHT22;37874;53.158;6.766;2024-03-23T03:38:21;16.40;75.90
51815;DHT22;37874;53.158;6.766;2024-03-23T03:40:47;16.40;75.90
51815;DHT22;37874;53.158;6.766;2024-03-23T03:43:12;16.40;75.80
51815;DHT22;37874;53.158;6.766;2024-03-23T03:45:38;16.30;75.80
51815;DHT22;37874;53.158;6.766;2024-03-23T03:48:04;16.30;75.90
51815;DHT22;37874;53.158;6.766;2024-03-23T03:50:33;16.30;75.80
51815;DHT22;37874;53.158;6.766;2024-03-23T03:52:58;16.30;75.80
51815;DHT22;37874;53.158;6.766;2024-03-23T03:55:24;16.30;75.80
51815;DHT22;37874;53.158;6.766;2024-03-23T03:57:49;16.40;75.80
51815;DHT22;37874;53.158;6.766;2024-03-23T04:00:16;16.30;75.90
51815;DHT22;37874;53.158;6.766;2024-03-23T04:02:43;16.30;75.80
51815;DHT22;37874;53.158;6.766;2024-03-23T04:05:10;17.00;76.20
51815;DHT22;37874;53.158;6.766;2024-03-23T04:07:37;17.20;76.30
51815;DHT22;37874;53.158;6.766;2024-03-23T04:10:04;16.30;75.80
51815;DHT22;37874;53.158;6.766;2024-03-23T04:12:33;16.30;75.80
51815;DHT22;37874;53.158;6.766;2024-03-23T04:14:58;16.20;75.80
51815;DHT22;37874;53.158;6.766;2024-03-23T04:17:27;16.20;75.80
51815;DHT22;37874;53.158;6.766;2024-03-23T04:19:57;16.40;75.90
51815;DHT22;37874;53.158;6.766;2024-03-23T04:22:26;16.20;75.80
51815;DHT22;37874;53.158;6.766;2024-03-23T04:24:58;16.20;75.80
51815;DHT22;37874;53.158;6.766;2024-03-23T04:27:24;16.20;75.80
51815;DHT22;37874;53.158;6.766;2024-03-23T04:29:52;16.20;75.80
51815;DHT22;37874;53.158;6.766;2024-03-23T04:32:19;16.20;75.80
51815;DHT22;37874;53.158;6.766;2024-03-23T04:34:45;16.80;76.10
51815;DHT22;37874;53.158;6.766;2024-03-23T04:37:11;16.20;75.60
51815;DHT22;37874;53.158;6.766;2024-03-23T04:39:37;16.20;75.70
51815;DHT22;37874;53.158;6.766;2024-03-23T04:42:05;16.20;75.50
51815;DHT22;37874;53.158;6.766;2024-03-23T04:44:31;16.20;75.70
51815;DHT22;37874;53.158;6.766;2024-03-23T04:46:58;16.20;75.50
51815;DHT22;37874;53.158;6.766;2024-03-23T04:49:26;16.20;75.70
51815;DHT22;37874;53.158;6.766;2024-03-23T04:51:51;16.20;75.80
51815;DHT22;37874;53.158;6.766;2024-03-23T04:54:17;16.20;75.70
51815;DHT22;37874;53.158;6.766;2024-03-23T04:56:44;16.10;75.50
51815;DHT22;37874;53.158;6.766;2024-03-23T04:59:09;17.00;76.10
51815;DHT22;37874;53.158;6.766;2024-03-23T05:01:37;16.20;75.70
51815;DHT22;37874;53.158;6.766;2024-03-23T05:04:04;16.20;75.60
51815;DHT22;37874;53.158;6.766;2024-03-23T05:06:32;16.10;75.30
51815;DHT22;37874;53.158;6.766;2024-03-23T05:09:00;16.10;75.40
51815;DHT22;37874;53.158;6.766;2024-03-23T05:11:31;16.00;75.40
51815;DHT22;37874;53.158;6.766;2024-03-23T05:14:01;16.50;75.40
51815;DHT22;37874;53.158;6.766;2024-03-23T05:16:30;16.20;75.50
51815;DHT22;37874;53.158;6.766;2024-03-23T05:18:57;16.90;75.80
51815;DHT22;37874;53.158;6.766;2024-03-23T05:21:25;16.10;75.50
51815;DHT22;37874;53.158;6.766;2024-03-23T05:23:51;16.10;75.60
51815;DHT22;37874;53.158;6.766;2024-03-23T05:26:22;16.70;75.60
51815;DHT22;37874;53.158;6.766;2024-03-23T05:28:49;16.30;75.60
51815;DHT22;37874;53.158;6.766;2024-03-23T05:31:33;16.10;75.50
51815;DHT22;37874;53.158;6.766;2024-03-23T05:34:00;16.10;75.40
51815;DHT22;37874;53.158;6.766;2024-03-23T05:36:27;16.10;75.10
51815;DHT22;37874;53.158;6.766;2024-03-23T05:38:53;16.10;75.20
51815;DHT22;37874;53.158;6.766;2024-03-23T05:41:19;16.00;75.00
51815;DHT22;37874;53.158;6.766;2024-03-23T05:43:44;16.00;75.30
51815;DHT22;37874;53.158;6.766;2024-03-23T05:46:10;16.00;74.90
51815;DHT22;37874;53.158;6.766;2024-03-23T05:48:38;16.00;75.40
51815;DHT22;37874;53.158;6.766;2024-03-23T05:51:04;16.00;75.50
51815;DHT22;37874;53.158;6.766;2024-03-23T05:53:31;16.00;75.50
51815;DHT22;37874;53.158;6.766;2024-03-23T05:56:02;16.70;76.10
51815;DHT22;37874;53.158;6.766;2024-03-23T05:58:30;16.10;75.40
51815;DHT22;37874;53.158;6.766;2024-03-23T06:01:21;16.20;75.10
51815;DHT22;37874;53.158;6.766;2024-03-23T06:03:47;16.00;75.20
51815;DHT22;37874;53.158;6.766;2024-03-23T06:06:21;16.70;75.50
51815;DHT22;37874;53.158;6.766;2024-03-23T06:08:53;16.20;75.20
51815;DHT22;37874;53.158;6.766;2024-03-23T06:11:23;16.10;75.20
51815;DHT22;37874;53.158;6.766;2024-03-23T06:13:49;16.10;75.20
51815;DHT22;37874;53.158;6.766;2024-03-23T06:16:16;16.20;75.00
51815;DHT22;37874;53.158;6.766;2024-03-23T06:18:41;16.10;75.00
51815;DHT22;37874;53.158;6.766;2024-03-23T06:21:13;16.20;75.10
51815;DHT22;37874;53.158;6.766;2024-03-23T06:23:42;16.90;75.30
51815;DHT22;37874;53.158;6.766;2024-03-23T06:26:09;16.40;73.80
51815;DHT22;37874;53.158;6.766;2024-03-23T06:28:40;16.10;72.80
51815;DHT22;37874;53.158;6.766;2024-03-23T06:31:09;16.10;72.00
51815;DHT22;37874;53.158;6.766;2024-03-23T06:33:47;16.50;71.80
51815;DHT22;37874;53.158;6.766;2024-03-23T06:36:19;16.00;73.00
51815;DHT22;37874;53.158;6.766;2024-03-23T06:38:49;16.10;74.10
51815;DHT22;37874;53.158;6.766;2024-03-23T06:41:15;16.10;74.50
51815;DHT22;37874;53.158;6.766;2024-03-23T06:43:40;16.00;74.60
51815;DHT22;37874;53.158;6.766;2024-03-23T06:46:09;16.10;74.70
51815;DHT22;37874;53.158;6.766;2024-03-23T06:48:36;16.40;74.90
51815;DHT22;37874;53.158;6.766;2024-03-23T06:51:01;16.10;74.80
51815;DHT22;37874;53.158;6.766;2024-03-23T06:53:31;16.10;74.80
51815;DHT22;37874;53.158;6.766;2024-03-23T06:55:59;16.60;75.10
51815;DHT22;37874;53.158;6.766;2024-03-23T06:58:26;16.80;75.00
51815;DHT22;37874;53.158;6.766;2024-03-23T07:00:53;16.40;74.80
51815;DHT22;37874;53.158;6.766;2024-03-23T07:03:18;16.10;74.60
51815;DHT22;37874;53.158;6.766;2024-03-23T07:05:44;16.20;74.70
51815;DHT22;37874;53.158;6.766;2024-03-23T07:08:11;16.20;74.60
51815;DHT22;37874;53.158;6.766;2024-03-23T07:10:41;16.20;74.60
51815;DHT22;37874;53.158;6.766;2024-03-23T07:13:08;16.10;74.60
51815;DHT22;37874;53.158;6.766;2024-03-23T07:15:39;16.20;74.70
51815;DHT22;37874;53.158;6.766;2024-03-23T07:18:24;16.70;75.00
51815;DHT22;37874;53.158;6.766;2024-03-23T07:21:05;16.30;74.60
51815;DHT22;37874;53.158;6.766;2024-03-23T07:23:35;16.30;74.50
51815;DHT22;37874;53.158;6.766;2024-03-23T07:26:04;17.40;75.00
51815;DHT22;37874;53.158;6.766;2024-03-23T07:28:36;16.30;74.50
51815;DHT22;37874;53.158;6.766;2024-03-23T07:31:06;16.40;74.30
51815;DHT22;37874;53.158;6.766;2024-03-23T07:33:48;16.40;73.80
51815;DHT22;37874;53.158;6.766;2024-03-23T07:36:14;16.40;73.20
51815;DHT22;37874;53.158;6.766;2024-03-23T07:38:44;16.40;73.20
51815;DHT22;37874;53.158;6.766;2024-03-23T07:41:18;16.30;73.00
51815;DHT22;37874;53.158;6.766;2024-03-23T07:43:47;16.30;72.30
51815;DHT22;37874;53.158;6.766;2024-03-23T07:46:17;17.30;73.40
51815;DHT22;37874;53.158;6.766;2024-03-23T07:48:44;16.40;73.20
51815;DHT22;37874;53.158;6.766;2024-03-23T07:51:16;16.40;72.80
51815;DHT22;37874;53.158;6.766;2024-03-23T07:53:44;16.40;72.90
51815;DHT22;37874;53.158;6.766;2024-03-23T07:56:18;16.40;73.00
51815;DHT22;37874;53.158;6.766;2024-03-23T07:58:48;16.40;73.20
51815;DHT22;37874;53.158;6.766;2024-03-23T08:01:17;17.00;73.00
51815;DHT22;37874;53.158;6.766;2024-03-23T08:03:49;16.50;72.90
51815;DHT22;37874;53.158;6.766;2024-03-23T08:06:20;16.50;73.30
51815;DHT22;37874;53.158;6.766;2024-03-23T08:09:00;16.60;73.40
51815;DHT22;37874;53.158;6.766;2024-03-23T08:11:31;16.60;72.60
51815;DHT22;37874;53.158;6.766;2024-03-23T08:13:57;16.70;72.80
51815;DHT22;37874;53.158;6.766;2024-03-23T08:16:25;16.70;72.50
51815;DHT22;37874;53.158;6.766;2024-03-23T08:18:51;16.70;72.00
51815;DHT22;37874;53.158;6.766;2024-03-23T08:21:19;17.30;72.50
51815;DHT22;37874;53.158;6.766;2024-03-23T08:23:46;17.20;71.80
51815;DHT22;37874;53.158;6.766;2024-03-23T08:26:15;16.80;71.70
51815;DHT22;37874;53.158;6.766;2024-03-23T08:28:49;16.80;71.80
51815;DHT22;37874;53.158;6.766;2024-03-23T08:31:20;16.80;72.30
51815;DHT22;37874;53.158;6.766;2024-03-23T08:33:48;16.90;70.10
51815;DHT22;37874;53.158;6.766;2024-03-23T08:36:16;17.10;72.00
51815;DHT22;37874;53.158;6.766;2024-03-23T08:38:42;16.90;69.80
51815;DHT22;37874;53.158;6.766;2024-03-23T08:41:09;16.90;69.90
51815;DHT22;37874;53.158;6.766;2024-03-23T08:43:38;16.50;70.20
51815;DHT22;37874;53.158;6.766;2024-03-23T08:46:07;16.90;71.40
51815;DHT22;37874;53.158;6.766;2024-03-23T08:48:40;17.00;70.40
51815;DHT22;37874;53.158;6.766;2024-03-23T08:51:10;16.90;71.30
51815;DHT22;37874;53.158;6.766;2024-03-23T08:53:39;17.10;72.10
51815;DHT22;37874;53.158;6.766;2024-03-23T08:56:08;17.00;72.40
51815;DHT22;37874;53.158;6.766;2024-03-23T08:58:38;17.00;72.40
51815;DHT22;37874;53.158;6.766;2024-03-23T09:01:08;17.40;72.60
51815;DHT22;37874;53.158;6.766;2024-03-23T09:03:38;17.10;72.00
51815;DHT22;37874;53.158;6.766;2024-03-23T09:06:17;18.20;72.90
51815;DHT22;37874;53.158;6.766;2024-03-23T09:08:44;17.20;72.30
51815;DHT22;37874;53.158;6.766;2024-03-23T09:11:16;17.20;72.30
51815;DHT22;37874;53.158;6.766;2024-03-23T09:13:43;17.20;72.40
51815;DHT22;37874;53.158;6.766;2024-03-23T09:16:11;17.20;72.40
51815;DHT22;37874;53.158;6.766;2024-03-23T09:18:40;17.30;72.60
51815;DHT22;37874;53.158;6.766;2024-03-23T09:21:15;17.30;72.50
51815;DHT22;37874;53.158;6.766;2024-03-23T09:23:48;17.30;72.10
51815;DHT22;37874;53.158;6.766;2024-03-23T09:26:16;17.30;72.30
51815;DHT22;37874;53.158;6.766;2024-03-23T09:28:59;17.30;72.10
51815;DHT22;37874;53.158;6.766;2024-03-23T09:31:27;17.40;72.40
51815;DHT22;37874;53.158;6.766;2024-03-23T09:33:57;17.30;72.50
51815;DHT22;37874;53.158;6.766;2024-03-23T09:36:26;17.30;72.50
51815;DHT22;37874;53.158;6.766;2024-03-23T09:38:53;17.40;72.50
51815;DHT22;37874;53.158;6.766;2024-03-23T09:41:18;17.30;72.40
51815;DHT22;37874;53.158;6.766;2024-03-23T09:43:56;17.30;72.30
51815;DHT22;37874;53.158;6.766;2024-03-23T09:46:23;17.40;71.40
51815;DHT22;37874;53.158;6.766;2024-03-23T09:48:52;17.30;71.40
51815;DHT22;37874;53.158;6.766;2024-03-23T09:51:19;17.30;71.70
51815;DHT22;37874;53.158;6.766;2024-03-23T09:53:45;18.10;71.40
51815;DHT22;37874;53.158;6.766;2024-03-23T09:56:11;17.30;70.50
51815;DHT22;37874;53.158;6.766;2024-03-23T09:58:36;17.30;69.70
51815;DHT22;37874;53.158;6.766;2024-03-23T10:01:18;17.30;70.30
51815;DHT22;37874;53.158;6.766;2024-03-23T10:03:46;17.20;69.30
51815;DHT22;37874;53.158;6.766;2024-03-23T10:06:13;18.30;70.70
51815;DHT22;37874;53.158;6.766;2024-03-23T10:08:41;17.10;71.20
51815;DHT22;37874;53.158;6.766;2024-03-23T10:11:32;17.20;71.70
51815;DHT22;37874;53.158;6.766;2024-03-23T10:14:00;17.10;71.90
51815;DHT22;37874;53.158;6.766;2024-03-23T10:16:26;17.10;72.20
51815;DHT22;37874;53.158;6.766;2024-03-23T10:18:54;17.10;72.00
51815;DHT22;37874;53.158;6.766;2024-03-23T10:21:20;17.10;71.10
51815;DHT22;37874;53.158;6.766;2024-03-23T10:23:46;17.20;71.30
51815;DHT22;37874;53.158;6.766;2024-03-23T10:26:18;16.90;70.70
51815;DHT22;37874;53.158;6.766;2024-03-23T10:29:00;16.90;71.20
51815;DHT22;37874;53.158;6.766;2024-03-23T10:31:35;16.90;71.40
51815;DHT22;37874;53.158;6.766;2024-03-23T10:34:03;17.40;71.20
51815;DHT22;37874;53.158;6.766;2024-03-23T10:36:31;16.80;71.70
51815;DHT22;37874;53.158;6.766;2024-03-23T10:39:09;16.80;71.40
51815;DHT22;37874;53.158;6.766;2024-03-23T10:41:39;16.80;72.00
51815;DHT22;37874;53.158;6.766;2024-03-23T10:44:06;16.80;72.50
51815;DHT22;37874;53.158;6.766;2024-03-23T10:46:43;16.80;71.30
51815;DHT22;37874;53.158;6.766;2024-03-23T10:49:09;16.80;72.20
51815;DHT22;37874;53.158;6.766;2024-03-23T10:51:34;16.80;72.80
51815;DHT22;37874;53.158;6.766;2024-03-23T10:54:06;16.90;72.90
51815;DHT22;37874;53.158;6.766;2024-03-23T10:56:35;17.20;71.30
51815;DHT22;37874;53.158;6.766;2024-03-23T10:59:05;16.90;71.40
51815;DHT22;37874;53.158;6.766;2024-03-23T11:01:59;16.90;71.60
51815;DHT22;37874;53.158;6.766;2024-03-23T11:04:37;16.80;70.50
51815;DHT22;37874;53.158;6.766;2024-03-23T11:09:56;16.80;71.90
51815;DHT22;37874;53.158;6.766;2024-03-23T11:12:27;17.00;71.60
51815;DHT22;37874;53.158;6.766;2024-03-23T11:15:05;16.70;71.80
51815;DHT22;37874;53.158;6.766;2024-03-23T11:18:05;16.70;72.10
51815;DHT22;37874;53.158;6.766;2024-03-23T11:20:39;16.70;72.00
51815;DHT22;37874;53.158;6.766;2024-03-23T11:23:06;16.70;71.10
51815;DHT22;37874;53.158;6.766;2024-03-23T11:25:33;16.60;71.20
51815;DHT22;37874;53.158;6.766;2024-03-23T11:28:18;16.70;71.60
51815;DHT22;37874;53.158;6.766;2024-03-23T11:30:45;16.60;72.00
51815;DHT22;37874;53.158;6.766;2024-03-23T11:33:12;16.90;71.40
51815;DHT22;37874;53.158;6.766;2024-03-23T11:35:41;16.60;71.30
51815;DHT22;37874;53.158;6.766;2024-03-23T11:38:14;16.60;72.50
51815;DHT22;37874;53.158;6.766;2024-03-23T11:41:02;16.70;72.60
51815;DHT22;37874;53.158;6.766;2024-03-23T11:43:32;16.80;72.40
51815;DHT22;37874;53.158;6.766;2024-03-23T11:45:58;17.10;71.40
51815;DHT22;37874;53.158;6.766;2024-03-23T11:48:25;17.40;71.00
51815;DHT22;37874;53.158;6.766;2024-03-23T11:50:57;18.50;71.40
51815;DHT22;37874;53.158;6.766;2024-03-23T11:53:24;17.40;70.40
51815;DHT22;37874;53.158;6.766;2024-03-23T11:55:56;17.50;70.10
51815;DHT22;37874;53.158;6.766;2024-03-23T11:58:32;17.50;70.10
51815;DHT22;37874;53.158;6.766;2024-03-23T12:01:03;17.70;69.30
51815;DHT22;37874;53.158;6.766;2024-03-23T12:03:31;17.80;69.70
51815;DHT22;37874;53.158;6.766;2024-03-23T12:05:59;18.20;69.40
51815;DHT22;37874;53.158;6.766;2024-03-23T12:08:29;17.80;69.00
51815;DHT22;37874;53.158;6.766;2024-03-23T12:11:12;18.40;69.50
51815;DHT22;37874;53.158;6.766;2024-03-23T12:13:43;17.90;68.50
51815;DHT22;37874;53.158;6.766;2024-03-23T12:16:11;17.90;67.20
51815;DHT22;37874;53.158;6.766;2024-03-23T12:18:38;17.70;67.70
51815;DHT22;37874;53.158;6.766;2024-03-23T12:21:06;17.60;68.30
51815;DHT22;37874;53.158;6.766;2024-03-23T12:23:34;17.50;68.50
51815;DHT22;37874;53.158;6.766;2024-03-23T12:26:01;17.50;68.70
51815;DHT22;37874;53.158;6.766;2024-03-23T12:28:28;17.50;68.60
51815;DHT22;37874;53.158;6.766;2024-03-23T12:30:54;17.40;68.70
51815;DHT22;37874;53.158;6.766;2024-03-23T12:33:20;17.90;69.10
51815;DHT22;37874;53.158;6.766;2024-03-23T12:35:47;17.80;69.30
51815;DHT22;37874;53.158;6.766;2024-03-23T12:38:13;17.70;68.10
51815;DHT22;37874;53.158;6.766;2024-03-23T12:40:42;17.50;68.80
51815;DHT22;37874;53.158;6.766;2024-03-23T12:43:13;17.30;68.40
51815;DHT22;37874;53.158;6.766;2024-03-23T12:45:40;17.30;69.20
51815;DHT22;37874;53.158;6.766;2024-03-23T12:48:07;18.00;70.20
51815;DHT22;37874;53.158;6.766;2024-03-23T12:50:33;17.40;70.20
51815;DHT22;37874;53.158;6.766;2024-03-23T12:52:59;17.40;70.40
51815;DHT22;37874;53.158;6.766;2024-03-23T12:55:25;17.40;70.50
51815;DHT22;37874;53.158;6.766;2024-03-23T12:57:51;17.60;70.50
51815;DHT22;37874;53.158;6.766;2024-03-23T13:00:17;18.50;70.40
51815;DHT22;37874;53.158;6.766;2024-03-23T13:02:43;17.70;68.10
51815;DHT22;37874;53.158;6.766;2024-03-23T13:05:10;18.20;69.10
51815;DHT22;37874;53.158;6.766;2024-03-23T13:07:36;18.10;68.60
51815;DHT22;37874;53.158;6.766;2024-03-23T13:10:05;18.00;67.50
51815;DHT22;37874;53.158;6.766;2024-03-23T13:12:31;18.00;67.50
51815;DHT22;37874;53.158;6.766;2024-03-23T13:14:58;18.30;67.60
51815;DHT22;37874;53.158;6.766;2024-03-23T13:17:26;17.90;67.70
51815;DHT22;37874;53.158;6.766;2024-03-23T13:19:54;17.90;67.70
51815;DHT22;37874;53.158;6.766;2024-03-23T13:22:21;17.90;67.00
51815;DHT22;37874;53.158;6.766;2024-03-23T13:24:48;18.20;66.60
51815;DHT22;37874;53.158;6.766;2024-03-23T13:27:16;18.50;67.50
51815;DHT22;37874;53.158;6.766;2024-03-23T13:29:43;18.10;67.00
51815;DHT22;37874;53.158;6.766;2024-03-23T13:32:12;18.20;67.10
51815;DHT22;37874;53.158;6.766;2024-03-23T13:34:40;18.40;67.40
51815;DHT22;37874;53.158;6.766;2024-03-23T13:37:06;18.20;67.50
51815;DHT22;37874;53.158;6.766;2024-03-23T13:39:34;18.30;67.60
51815;DHT22;37874;53.158;6.766;2024-03-23T13:41:59;18.40;67.00
51815;DHT22;37874;53.158;6.766;2024-03-23T13:44:40;18.80;66.40
51815;DHT22;37874;53.158;6.766;2024-03-23T13:47:10;18.50;66.90
51815;DHT22;37874;53.158;6.766;2024-03-23T13:49:36;18.60;66.70
51815;DHT22;37874;53.158;6.766;2024-03-23T13:52:03;18.60;66.10
51815;DHT22;37874;53.158;6.766;2024-03-23T13:54:30;18.70;66.00
51815;DHT22;37874;53.158;6.766;2024-03-23T13:56:58;18.80;65.40
51815;DHT22;37874;53.158;6.766;2024-03-23T13:59:31;18.70;65.80
51815;DHT22;37874;53.158;6.766;2024-03-23T14:02:01;19.20;65.80
51815;DHT22;37874;53.158;6.766;2024-03-23T14:04:27;18.90;65.60
51815;DHT22;37874;53.158;6.766;2024-03-23T14:06:54;18.50;64.90
51815;DHT22;37874;53.158;6.766;2024-03-23T14:09:23;18.50;65.60
51815;DHT22;37874;53.158;6.766;2024-03-23T14:11:51;18.40;66.10
51815;DHT22;37874;53.158;6.766;2024-03-23T14:14:17;18.40;65.20
51815;DHT22;37874;53.158;6.766;2024-03-23T14:16:46;18.60;66.10
51815;DHT22;37874;53.158;6.766;2024-03-23T14:19:13;18.70;66.60
51815;DHT22;37874;53.158;6.766;2024-03-23T14:21:48;18.80;66.60
51815;DHT22;37874;53.158;6.766;2024-03-23T14:24:14;18.50;66.20
51815;DHT22;37874;53.158;6.766;2024-03-23T14:26:40;18.60;65.70
51815;DHT22;37874;53.158;6.766;2024-03-23T14:29:17;18.60;65.70
51815;DHT22;37874;53.158;6.766;2024-03-23T14:31:51;18.50;64.10
51815;DHT22;37874;53.158;6.766;2024-03-23T14:34:26;18.50;64.70
51815;DHT22;37874;53.158;6.766;2024-03-23T14:36:58;18.50;64.50
51815;DHT22;37874;53.158;6.766;2024-03-23T14:39:26;18.50;64.50
51815;DHT22;37874;53.158;6.766;2024-03-23T14:41:52;18.60;64.90
51815;DHT22;37874;53.158;6.766;2024-03-23T14:44:21;18.80;65.30
51815;DHT22;37874;53.158;6.766;2024-03-23T14:46:50;18.90;65.40
51815;DHT22;37874;53.158;6.766;2024-03-23T14:49:19;19.20;65.60
51815;DHT22;37874;53.158;6.766;2024-03-23T14:51:50;19.20;64.60
51815;DHT22;37874;53.158;6.766;2024-03-23T14:54:17;19.30;64.00
51815;DHT22;37874;53.158;6.766;2024-03-23T14:56:43;19.50;64.10
51815;DHT22;37874;53.158;6.766;2024-03-23T14:59:09;19.60;63.00
51815;DHT22;37874;53.158;6.766;2024-03-23T15:01:44;19.60;63.10
51815;DHT22;37874;53.158;6.766;2024-03-23T15:04:11;19.80;63.10
51815;DHT22;37874;53.158;6.766;2024-03-23T15:06:42;19.90;62.70
51815;DHT22;37874;53.158;6.766;2024-03-23T15:14:42;19.70;62.60
51815;DHT22;37874;53.158;6.766;2024-03-23T15:17:20;19.50;62.90
51815;DHT22;37874;53.158;6.766;2024-03-23T15:19:48;19.60;63.30
51815;DHT22;37874;53.158;6.766;2024-03-23T15:22:17;19.90;63.80
51815;DHT22;37874;53.158;6.766;2024-03-23T15:24:45;19.40;63.60
51815;DHT22;37874;53.158;6.766;2024-03-23T15:27:13;19.60;63.90
51815;DHT22;37874;53.158;6.766;2024-03-23T15:29:45;19.70;63.90
51815;DHT22;37874;53.158;6.766;2024-03-23T15:32:12;19.90;63.30
51815;DHT22;37874;53.158;6.766;2024-03-23T15:34:41;20.10;63.00
51815;DHT22;37874;53.158;6.766;2024-03-23T15:37:07;20.20;62.70
51815;DHT22;37874;53.158;6.766;2024-03-23T15:39:38;20.70;62.90
51815;DHT22;37874;53.158;6.766;2024-03-23T15:42:04;20.60;62.30
51815;DHT22;37874;53.158;6.766;2024-03-23T15:44:34;20.60;61.60
51815;DHT22;37874;53.158;6.766;2024-03-23T15:47:00;20.70;61.20
51815;DHT22;37874;53.158;6.766;2024-03-23T15:49:26;20.80;61.20
51815;DHT22;37874;53.158;6.766;2024-03-23T15:51:56;21.00;61.30
51815;DHT22;37874;53.158;6.766;2024-03-23T15:54:24;20.90;60.50
51815;DHT22;37874;53.158;6.766;2024-03-23T15:56:50;21.30;60.80
51815;DHT22;37874;53.158;6.766;2024-03-23T15:59:17;21.10;60.50
51815;DHT22;37874;53.158;6.766;2024-03-23T16:01:43;21.00;60.40
51815;DHT22;37874;53.158;6.766;2024-03-23T16:04:17;21.00;60.90
51815;DHT22;37874;53.158;6.766;2024-03-23T16:06:47;21.10;60.60
51815;DHT22;37874;53.158;6.766;2024-03-23T16:09:17;21.30;60.50
51815;DHT22;37874;53.158;6.766;2024-03-23T16:11:47;21.10;60.20
51815;DHT22;37874;53.158;6.766;2024-03-23T16:14:18;21.00;60.40
51815;DHT22;37874;53.158;6.766;2024-03-23T16:16:44;21.00;60.60
51815;DHT22;37874;53.158;6.766;2024-03-23T16:19:11;21.00;60.60
51815;DHT22;37874;53.158;6.766;2024-03-23T16:21:49;21.00;60.70
51815;DHT22;37874;53.158;6.766;2024-03-23T16:24:16;21.40;60.90
51815;DHT22;37874;53.158;6.766;2024-03-23T16:26:43;21.00;60.90
51815;DHT22;37874;53.158;6.766;2024-03-23T16:29:11;21.00;60.80
51815;DHT22;37874;53.158;6.766;2024-03-23T16:31:38;21.00;61.00
51815;DHT22;37874;53.158;6.766;2024-03-23T16:34:06;20.90;60.80
51815;DHT22;37874;53.158;6.766;2024-03-23T16:36:32;20.80;60.90
51815;DHT22;37874;53.158;6.766;2024-03-23T16:38:57;21.00;62.10
51815;DHT22;37874;53.158;6.766;2024-03-23T16:41:23;20.70;61.30